createdAt,value
2022-08-20T00:03:31.616Z,62.61
2022-08-20T00:08:34.817Z,62.46
2022-08-20T00:13:43.959Z,62.56
2022-08-20T00:18:47.978Z,62.91
2022-08-20T00:23:56.127Z,63.06
2022-08-20T00:28:59.265Z,63.60
2022-08-20T00:34:02.353Z,63.55
2022-08-20T00:39:05.411Z,64.02
2022-08-20T00:44:19.912Z,64.22
2022-08-20T00:49:32.686Z,64.13
2022-08-20T00:54:48.667Z,64.46
2022-08-20T00:59:53.632Z,64.58
2022-08-20T01:04:57.481Z,64.71
2022-08-20T01:10:13.412Z,64.88
2022-08-20T01:15:23.258Z,64.82
2022-08-20T01:20:37.818Z,64.97
2022-08-20T01:26:03.572Z,65.12
2022-08-20T01:31:11.893Z,65.20
2022-08-20T01:36:18.035Z,65.13
2022-08-20T01:42:05.779Z,65.36
2022-08-20T01:47:36.391Z,65.37
2022-08-20T01:53:11.023Z,64.98
2022-08-20T01:58:14.138Z,65.00
2022-08-20T02:03:17.183Z,65.17
2022-08-20T02:08:22.255Z,65.51
2022-08-20T02:13:25.228Z,65.73
2022-08-20T02:18:28.330Z,65.95
2022-08-20T02:23:31.449Z,65.87
2022-08-20T02:28:34.939Z,65.90
2022-08-20T02:33:39.148Z,65.87
2022-08-20T02:38:42.350Z,65.88
2022-08-20T02:43:45.321Z,65.67
2022-08-20T02:48:48.291Z,65.79
2022-08-20T02:53:51.833Z,66.05
2022-08-20T02:58:54.933Z,66.33
2022-08-20T03:04:00.345Z,66.54
2022-08-20T03:09:07.972Z,66.63
2022-08-20T03:14:11.989Z,66.28
2022-08-20T03:19:15.029Z,66.25
2022-08-20T03:24:18.187Z,65.92
2022-08-20T03:29:21.220Z,65.77
2022-08-20T03:34:24.270Z,65.83
2022-08-20T03:39:27.333Z,65.90
2022-08-20T03:44:30.780Z,65.96
2022-08-20T03:49:35.903Z,66.40
2022-08-20T03:54:39.008Z,66.90
2022-08-20T03:59:44.648Z,66.83
2022-08-20T04:04:48.694Z,67.12
2022-08-20T04:09:56.891Z,67.48
2022-08-20T04:14:59.913Z,67.22
2022-08-20T04:20:06.947Z,66.82
2022-08-20T04:25:10.138Z,66.79
2022-08-20T04:30:23.146Z,67.40
2022-08-20T04:35:27.385Z,67.62
2022-08-20T04:40:49.968Z,67.87
2022-08-20T04:45:54.647Z,67.64
2022-08-20T04:50:59.025Z,67.29
2022-08-20T04:56:03.306Z,66.82
2022-08-20T05:01:11.924Z,66.38
2022-08-20T05:06:16.454Z,66.17
2022-08-20T05:11:34.053Z,66.22
2022-08-20T05:16:40.994Z,66.31
2022-08-20T05:21:44.239Z,66.18
2022-08-20T05:26:47.910Z,65.75
2022-08-20T05:31:51.215Z,65.65
2022-08-20T05:36:54.149Z,65.50
2022-08-20T05:41:59.376Z,65.39
2022-08-20T05:47:04.187Z,65.01
2022-08-20T05:52:07.410Z,64.74
2022-08-20T05:57:10.410Z,64.06
2022-08-20T06:02:32.393Z,63.44
2022-08-20T06:07:35.482Z,62.69
2022-08-20T06:12:39.201Z,61.76
2022-08-20T06:17:42.229Z,61.90
2022-08-20T06:22:45.267Z,61.78
2022-08-20T06:27:48.328Z,61.89
2022-08-20T06:32:51.462Z,61.39
2022-08-20T06:37:54.701Z,61.89
2022-08-20T06:42:58.262Z,61.77
2022-08-20T06:48:08.570Z,62.15
2022-08-20T06:53:16.685Z,62.68
2022-08-20T06:58:37.804Z,62.37
2022-08-20T07:03:54.569Z,61.52
2022-08-20T07:08:58.959Z,61.27
2022-08-20T07:14:05.630Z,60.11
2022-08-20T07:19:08.686Z,59.74
2022-08-20T07:24:12.872Z,59.39
2022-08-20T07:29:15.918Z,59.38
2022-08-20T07:34:24.544Z,58.98
2022-08-20T07:39:28.515Z,59.67
2022-08-20T07:44:34.330Z,59.55
2022-08-20T07:49:41.708Z,57.71
2022-08-20T07:54:45.253Z,56.54
2022-08-20T07:59:48.997Z,56.90
2022-08-20T08:04:52.152Z,56.41
2022-08-20T08:09:57.377Z,56.59
2022-08-20T08:15:00.666Z,55.99
2022-08-20T08:20:07.884Z,54.90
2022-08-20T08:25:13.365Z,54.28
2022-08-20T08:30:17.630Z,54.12
2022-08-20T08:35:20.657Z,53.99
2022-08-20T08:40:23.814Z,53.97
2022-08-20T08:45:45.731Z,53.10
2022-08-20T08:50:54.812Z,53.38
2022-08-20T08:55:58.790Z,53.01
2022-08-20T09:01:09.876Z,52.78
2022-08-20T09:06:32.986Z,51.56
2022-08-20T09:11:53.338Z,51.89
2022-08-20T09:16:56.339Z,51.40
2022-08-20T09:21:59.486Z,52.23
2022-08-20T09:27:02.951Z,51.35
2022-08-20T09:32:20.682Z,50.10
2022-08-20T09:37:27.753Z,50.48
2022-08-20T09:42:40.960Z,50.32
2022-08-20T09:48:10.309Z,48.80
2022-08-20T09:53:08.138Z,48.89
2022-08-20T09:58:53.752Z,48.80
2022-08-20T10:03:56.737Z,48.51
2022-08-20T10:08:59.815Z,48.28
2022-08-20T10:14:03.332Z,47.30
2022-08-20T10:19:07.026Z,47.52
2022-08-20T10:24:10.076Z,47.34
2022-08-20T10:29:14.277Z,48.30
2022-08-20T10:34:17.829Z,48.61
2022-08-20T10:39:20.849Z,48.23
2022-08-20T10:44:23.869Z,48.47
2022-08-20T10:49:26.856Z,49.47
2022-08-20T10:54:29.859Z,49.11
2022-08-20T10:59:32.838Z,48.75
2022-08-20T11:04:37.215Z,48.33
2022-08-20T11:09:40.516Z,46.98
2022-08-20T11:14:43.548Z,46.24
2022-08-20T11:19:46.705Z,46.32
2022-08-20T11:24:50.077Z,45.78
2022-08-20T11:29:53.581Z,46.00
2022-08-20T11:34:56.585Z,45.72
2022-08-20T11:39:59.576Z,46.32
2022-08-20T11:45:02.968Z,47.57
2022-08-20T11:50:20.198Z,46.94
2022-08-20T11:55:23.574Z,45.63
2022-08-20T12:00:34.629Z,45.18
2022-08-20T12:05:41.410Z,46.11
2022-08-20T12:10:44.518Z,46.29
2022-08-20T12:15:50.295Z,45.64
2022-08-20T12:20:53.673Z,45.18
2022-08-20T12:25:56.705Z,45.01
2022-08-20T12:31:02.455Z,44.40
2022-08-20T12:36:06.209Z,44.58
2022-08-20T12:41:09.231Z,44.51
2022-08-20T12:46:12.307Z,45.02
2022-08-20T12:51:15.292Z,45.06
2022-08-20T12:56:18.321Z,45.21
2022-08-20T13:01:21.384Z,44.85
2022-08-20T13:06:24.423Z,43.82
2022-08-20T13:11:27.592Z,44.04
2022-08-20T13:16:30.690Z,43.84
2022-08-20T13:21:33.827Z,44.51
2022-08-20T13:26:36.799Z,45.36
2022-08-20T13:31:42.332Z,45.52
2022-08-20T13:36:45.396Z,44.83
2022-08-20T13:41:48.578Z,44.70
2022-08-20T13:46:51.573Z,44.07
2022-08-20T13:51:55.739Z,43.56
2022-08-20T13:57:20.180Z,43.48
2022-08-20T14:02:24.469Z,44.40
2022-08-20T14:07:32.835Z,44.87
2022-08-20T14:12:36.319Z,45.16
2022-08-20T14:17:43.538Z,44.83
2022-08-20T14:22:47.132Z,45.86
2022-08-20T14:27:51.140Z,45.49
2022-08-20T14:32:55.297Z,45.10
2022-08-20T14:37:58.883Z,44.45
2022-08-20T14:43:03.514Z,45.01
2022-08-20T14:48:09.468Z,44.55
2022-08-20T14:53:12.472Z,45.61
2022-08-20T14:58:17.118Z,44.79
2022-08-20T15:03:24.045Z,44.57
2022-08-20T15:08:28.852Z,44.13
2022-08-20T15:13:32.153Z,44.85
2022-08-20T15:18:35.479Z,44.95
2022-08-20T15:23:38.515Z,45.14
2022-08-20T15:28:41.852Z,44.97
2022-08-20T15:33:44.838Z,45.15
2022-08-20T15:38:47.929Z,46.09
2022-08-20T15:43:50.917Z,45.94
2022-08-20T15:48:54.014Z,45.64
2022-08-20T15:53:58.822Z,45.55
2022-08-20T15:59:34.252Z,46.02
2022-08-20T16:05:00.048Z,46.24
2022-08-20T16:10:26.747Z,46.54
2022-08-20T16:15:34.897Z,46.51
2022-08-20T16:20:48.734Z,46.75
2022-08-20T16:26:23.513Z,47.20
2022-08-20T16:31:40.929Z,47.50
2022-08-20T16:37:17.329Z,47.75
2022-08-20T16:42:25.945Z,47.82
2022-08-20T16:47:33.713Z,47.49
2022-08-20T16:52:36.856Z,47.89
2022-08-20T16:57:40.011Z,48.39
2022-08-20T17:03:06.466Z,48.67
2022-08-20T17:08:19.018Z,49.28
2022-08-20T17:13:37.242Z,49.77
2022-08-20T17:18:52.959Z,50.05
2022-08-20T17:24:27.754Z,50.39
2022-08-20T17:29:47.428Z,50.94
2022-08-20T17:34:57.048Z,51.22
2022-08-20T17:40:15.606Z,51.28
2022-08-20T17:45:29.997Z,51.68
2022-08-20T17:50:39.134Z,52.13
2022-08-20T17:55:43.009Z,52.09
2022-08-20T18:00:46.434Z,52.27
2022-08-20T18:06:29.870Z,52.76
2022-08-20T18:12:01.919Z,53.25
2022-08-20T18:17:50.404Z,53.42
2022-08-20T18:23:24.324Z,53.46
2022-08-20T18:28:46.457Z,53.54
2022-08-20T18:33:49.460Z,53.56
2022-08-20T18:39:23.659Z,53.80
2022-08-20T18:44:40.275Z,54.26
2022-08-20T18:49:43.283Z,54.37
2022-08-20T18:54:56.580Z,54.19
2022-08-20T19:00:17.918Z,54.42
2022-08-20T19:05:37.032Z,54.97
2022-08-20T19:10:46.110Z,55.01
2022-08-20T19:15:55.420Z,55.36
2022-08-20T19:21:02.691Z,55.51
2022-08-20T19:26:25.476Z,55.71
2022-08-20T19:31:35.261Z,55.86
2022-08-20T19:36:42.888Z,56.01
2022-08-20T19:42:26.051Z,56.30
2022-08-20T19:47:41.491Z,56.62
2022-08-20T19:53:08.632Z,56.68
2022-08-20T19:58:26.678Z,56.81
2022-08-20T20:03:35.379Z,57.03
2022-08-20T20:08:50.526Z,57.35
2022-08-20T20:13:53.983Z,57.53
2022-08-20T20:19:22.797Z,57.51
2022-08-20T20:24:28.738Z,58.11
2022-08-20T20:29:37.488Z,58.19
2022-08-20T20:34:55.199Z,58.48
2022-08-20T20:40:08.272Z,58.57
2022-08-20T20:45:34.999Z,58.71
2022-08-20T20:50:40.817Z,58.74
2022-08-20T20:55:55.321Z,58.55
2022-08-20T21:00:58.293Z,58.51
2022-08-20T21:06:02.765Z,58.58
2022-08-20T21:11:05.903Z,58.63
2022-08-20T21:16:09.174Z,58.83
2022-08-20T21:21:12.363Z,59.07
2022-08-20T21:26:18.924Z,59.09
2022-08-20T21:31:29.513Z,59.12
2022-08-20T21:36:33.151Z,59.49
2022-08-20T21:41:38.246Z,59.48
2022-08-20T21:46:41.296Z,59.67
2022-08-20T21:51:44.463Z,59.69
2022-08-20T21:57:11.537Z,59.83
2022-08-20T22:02:16.426Z,60.26
2022-08-20T22:07:19.630Z,60.49
2022-08-20T22:12:26.775Z,60.82
2022-08-20T22:17:29.958Z,61.13
2022-08-20T22:22:33.303Z,61.55
2022-08-20T22:27:36.389Z,61.71
2022-08-20T22:32:51.296Z,61.97
2022-08-20T22:37:55.956Z,62.07
2022-08-20T22:42:59.122Z,62.16
2022-08-20T22:48:03.029Z,62.23
2022-08-20T22:53:07.958Z,62.45
2022-08-20T22:58:11.435Z,62.52
2022-08-20T23:03:18.055Z,62.81
2022-08-20T23:08:34.931Z,62.73
2022-08-20T23:13:38.478Z,62.96
2022-08-20T23:18:41.552Z,62.97
2022-08-20T23:23:44.558Z,63.05
2022-08-20T23:28:47.909Z,62.90
2022-08-20T23:33:50.895Z,62.65
2022-08-20T23:38:54.281Z,63.04
2022-08-20T23:43:57.316Z,63.13
2022-08-20T23:49:00.338Z,63.37
2022-08-20T23:54:04.018Z,63.49
2022-08-20T23:59:07.022Z,63.47
